Time;durP1;ratioP1;P1;durP2;ratioP2;P2;SDS_P1;SDS_P2;PMS_P1;PMS_P2;Temp;Humidity;BMP_temperature;BMP_pressure;BME280_temperature;BME280_humidity;BME280_pressure;Samples;Min_cycle;Max_cycle;Signal;HPM_P1;HPM_P2
2021/12/15 00:00:16;;;;;;;22.23;15.90;;;9.40;99.90;;;;;;5032838;28;20213;-58
2021/12/15 00:02:44;;;;;;;23.07;16.87;;;9.30;99.90;;;;;;5032667;28;20271;-56
2021/12/15 00:05:19;;;;;;;22.13;16.63;;;9.30;99.90;;;;;;5032179;28;20702;-56
2021/12/15 00:07:47;;;;;;;23.27;15.73;;;9.40;99.90;;;;;;5032793;28;20268;-57
2021/12/15 00:10:14;;;;;;;21.43;15.87;;;9.40;99.90;;;;;;5032581;28;20230;-57
2021/12/15 00:12:42;;;;;;;23.83;16.67;;;9.40;99.90;;;;;;5032530;28;20202;-56
2021/12/15 00:15:09;;;;;;;20.63;15.47;;;9.40;99.90;;;;;;5032297;28;20226;-57
2021/12/15 00:17:36;;;;;;;21.23;15.50;;;9.40;99.90;;;;;;5032261;28;20202;-57
2021/12/15 00:20:05;;;;;;;20.80;15.30;;;9.40;99.90;;;;;;5032688;28;20202;-56
2021/12/15 00:22:32;;;;;;;24.90;16.70;;;9.50;99.90;;;;;;5032492;28;20589;-58
2021/12/15 00:24:58;;;;;;;19.97;15.47;;;9.50;99.90;;;;;;5032175;28;20226;-56
2021/12/15 00:27:25;;;;;;;24.27;17.20;;;9.50;99.90;;;;;;5032365;28;20215;-57
2021/12/15 00:29:53;;;;;;;21.73;15.67;;;9.50;99.90;;;;;;5032245;28;20226;-58
2021/12/15 00:32:20;;;;;;;23.33;16.97;;;9.50;99.90;;;;;;5032087;28;20206;-57
2021/12/15 00:34:49;;;;;;;25.47;17.87;;;9.50;99.90;;;;;;5032123;28;20233;-57
2021/12/15 00:37:16;;;;;;;23.40;16.33;;;9.50;99.90;;;;;;5031556;28;20202;-57
2021/12/15 00:39:42;;;;;;;25.53;17.63;;;9.50;99.90;;;;;;5032142;28;20712;-57
2021/12/15 00:42:09;;;;;;;23.13;16.17;;;9.50;99.90;;;;;;5032223;28;20210;-58
2021/12/15 00:44:36;;;;;;;24.17;15.57;;;9.40;99.90;;;;;;5031643;28;20548;-56
2021/12/15 00:47:04;;;;;;;21.27;15.83;;;9.40;99.90;;;;;;5032171;28;20213;-57
2021/12/15 00:49:32;;;;;;;23.00;16.13;;;9.40;99.90;;;;;;5032154;28;20226;-57
2021/12/15 00:51:59;;;;;;;23.57;15.23;;;9.40;99.90;;;;;;5032123;28;20202;-57
2021/12/15 00:54:26;;;;;;;21.50;14.83;;;9.40;99.90;;;;;;5031634;28;20642;-57
2021/12/15 00:56:55;;;;;;;23.03;15.90;;;9.50;99.90;;;;;;5031927;28;20206;-57
2021/12/15 00:59:23;;;;;;;24.03;15.83;;;9.50;99.90;;;;;;5031795;28;20205;-56
2021/12/15 01:01:52;;;;;;;24.93;16.03;;;9.50;99.90;;;;;;5032085;28;20256;-57
2021/12/15 01:04:22;;;;;;;22.50;15.77;;;9.50;99.90;;;;;;5031722;28;20510;-57
2021/12/15 01:06:52;;;;;;;25.30;16.67;;;9.50;99.90;;;;;;5031987;28;20472;-57
2021/12/15 01:09:24;;;;;;;25.17;17.07;;;9.60;99.90;;;;;;5031779;28;20283;-57
2021/12/15 01:12:09;;;;;;;22.43;15.60;;;9.50;99.90;;;;;;5031813;28;20253;-56
2021/12/15 01:20:11;;;;;;;23.47;16.67;;;9.50;99.90;;;;;;5031926;28;20209;-57
2021/12/15 01:22:42;;;;;;;24.93;16.67;;;9.50;99.90;;;;;;5031864;28;20268;-57
2021/12/15 01:25:12;;;;;;;23.80;16.60;;;9.40;99.90;;;;;;5031646;28;20230;-56
2021/12/15 01:27:40;;;;;;;26.33;16.50;;;9.50;99.90;;;;;;5031725;28;20206;-56
2021/12/15 01:30:09;;;;;;;24.20;16.67;;;9.50;99.90;;;;;;5032334;28;20234;-57
2021/12/15 01:32:36;;;;;;;21.33;15.77;;;9.50;99.90;;;;;;5031637;28;20572;-56
2021/12/15 01:35:04;;;;;;;22.23;16.27;;;9.50;99.90;;;;;;5031471;28;20253;-57
2021/12/15 01:37:32;;;;;;;24.63;16.73;;;9.50;99.90;;;;;;5031636;28;20677;-57
2021/12/15 01:39:59;;;;;;;23.97;16.77;;;9.40;99.90;;;;;;5031723;28;20590;-57
2021/12/15 01:42:30;;;;;;;22.57;16.20;;;9.40;99.90;;;;;;5031591;28;20214;-57
2021/12/15 01:47:41;;;;;;;21.83;16.47;;;9.40;99.90;;;;;;5031568;28;20225;-56
2021/12/15 01:50:09;;;;;;;24.80;16.97;;;9.40;99.90;;;;;;5034587;28;20292;-57
2021/12/15 01:52:40;;;;;;;25.97;17.60;;;9.40;99.90;;;;;;5035296;28;20218;-57
2021/12/15 01:55:13;;;;;;;23.83;16.47;;;9.40;99.90;;;;;;5034909;28;20284;-57
2021/12/15 01:57:41;;;;;;;24.63;16.80;;;9.30;99.90;;;;;;5034974;28;20202;-57
2021/12/15 02:00:11;;;;;;;22.73;15.97;;;9.20;99.90;;;;;;5035219;28;20256;-57
2021/12/15 02:02:38;;;;;;;22.60;15.90;;;9.10;99.90;;;;;;5035192;28;20225;-57
2021/12/15 02:05:05;;;;;;;22.17;15.80;;;9.10;99.90;;;;;;5034788;28;20222;-58
2021/12/15 02:07:33;;;;;;;24.07;17.37;;;9.00;99.90;;;;;;5034914;28;20206;-58
2021/12/15 02:10:05;;;;;;;22.30;16.37;;;8.90;99.90;;;;;;5034664;28;20781;-57
2021/12/15 02:12:38;;;;;;;24.57;16.77;;;8.90;99.90;;;;;;5035031;28;20214;-57
2021/12/15 02:15:10;;;;;;;22.73;15.80;;;8.90;99.90;;;;;;5034458;28;20237;-58
2021/12/15 02:17:38;;;;;;;23.63;16.63;;;9.00;99.90;;;;;;5034737;28;20229;-57
2021/12/15 02:20:06;;;;;;;25.20;17.13;;;9.00;99.90;;;;;;5034612;28;20260;-58
2021/12/15 02:22:34;;;;;;;24.17;16.60;;;9.00;99.90;;;;;;5034444;28;20678;-58
2021/12/15 02:25:03;;;;;;;24.17;16.23;;;9.10;99.90;;;;;;5034731;28;20284;-59
2021/12/15 02:27:34;;;;;;;21.80;15.03;;;9.20;99.90;;;;;;5034370;28;20666;-57
2021/12/15 02:30:16;;;;;;;21.33;14.97;;;9.20;99.90;;;;;;5034319;28;20702;-59
2021/12/15 02:32:55;;;;;;;22.90;15.77;;;9.20;99.90;;;;;;5034551;28;20206;-59
2021/12/15 02:38:08;;;;;;;25.33;16.80;;;9.20;99.90;;;;;;5034522;28;20205;-57
2021/12/15 02:40:34;;;;;;;23.07;16.07;;;9.30;99.90;;;;;;5034474;28;20206;-56
2021/12/15 02:43:01;;;;;;;23.30;16.00;;;9.30;99.90;;;;;;5034051;28;20202;-57
2021/12/15 02:45:28;;;;;;;24.40;15.90;;;9.40;99.90;;;;;;5033846;28;20206;-57
2021/12/15 02:47:55;;;;;;;20.50;15.27;;;9.50;99.90;;;;;;5034258;28;20202;-58
2021/12/15 02:50:24;;;;;;;21.57;14.50;;;9.50;99.90;;;;;;5034197;28;20223;-57
2021/12/15 02:52:51;;;;;;;19.60;13.63;;;9.50;99.90;;;;;;5034267;28;20610;-56
2021/12/15 02:55:19;;;;;;;19.50;13.87;;;9.60;99.90;;;;;;5033885;28;20209;-56
2021/12/15 02:57:47;;;;;;;24.07;15.60;;;9.60;99.90;;;;;;5033926;28;20233;-56
2021/12/15 03:00:19;;;;;;;22.73;16.03;;;9.60;99.90;;;;;;5033089;28;20581;-56
2021/12/15 03:03:22;;;;;;;23.63;14.80;;;9.60;99.90;;;;;;5034136;28;20214;-56
2021/12/15 03:05:57;;;;;;;23.47;16.00;;;9.60;99.90;;;;;;5033729;28;20696;-56
2021/12/15 03:08:36;;;;;;;22.07;15.00;;;9.60;99.90;;;;;;5034448;28;20206;-57
2021/12/15 03:16:33;;;;;;;23.77;15.50;;;9.50;99.90;;;;;;5034524;28;20221;-56
2021/12/15 03:19:00;;;;;;;19.93;14.13;;;9.50;99.90;;;;;;5033682;28;20202;-57
2021/12/15 03:21:27;;;;;;;22.17;14.47;;;9.50;99.90;;;;;;5033765;28;20206;-56
2021/12/15 03:23:57;;;;;;;22.00;14.23;;;9.30;99.90;;;;;;5033464;28;20632;-57
2021/12/15 03:26:34;;;;;;;21.40;14.83;;;9.20;99.90;;;;;;5034048;28;20256;-58
2021/12/15 03:34:45;;;;;;;18.57;13.07;;;9.30;99.90;;;;;;5033743;28;20712;-57
2021/12/15 03:37:24;;;;;;;17.70;12.70;;;9.20;99.90;;;;;;5033823;28;20669;-57
2021/12/15 03:39:53;;;;;;;20.20;13.83;;;9.20;99.90;;;;;;5033517;28;20206;-57
2021/12/15 03:42:26;;;;;;;22.13;14.60;;;9.30;99.90;;;;;;5033271;28;20210;-57
2021/12/15 03:44:53;;;;;;;18.80;12.60;;;9.30;99.90;;;;;;5032797;28;20265;-57
2021/12/15 03:47:26;;;;;;;18.50;13.53;;;9.40;99.90;;;;;;5033152;28;20264;-57
2021/12/15 03:49:55;;;;;;;17.70;13.03;;;9.40;99.90;;;;;;5032858;28;20225;-57
2021/12/15 03:52:23;;;;;;;19.17;13.63;;;9.40;99.90;;;;;;5032820;28;20210;-57
2021/12/15 03:54:50;;;;;;;20.23;14.33;;;9.40;99.90;;;;;;5032709;28;20280;-57
2021/12/15 03:57:20;;;;;;;20.23;14.33;;;9.50;99.90;;;;;;5032711;28;20210;-58
2021/12/15 03:59:48;;;;;;;21.70;15.37;;;9.60;99.90;;;;;;5033188;28;20236;-57
2021/12/15 04:02:18;;;;;;;20.67;14.53;;;9.70;99.90;;;;;;5033255;28;20210;-58
2021/12/15 04:04:47;;;;;;;21.00;14.40;;;9.70;99.90;;;;;;5033021;28;20226;-58
2021/12/15 04:07:16;;;;;;;21.03;15.23;;;9.70;99.90;;;;;;5033325;28;20206;-58
2021/12/15 04:09:44;;;;;;;20.43;14.67;;;9.80;99.90;;;;;;5033171;28;20490;-58
2021/12/15 04:12:12;;;;;;;19.80;14.87;;;9.80;99.90;;;;;;5032693;28;20215;-56
2021/12/15 04:14:45;;;;;;;19.40;13.90;;;9.80;99.90;;;;;;5032450;28;20230;-57
2021/12/15 04:17:30;;;;;;;17.50;12.73;;;9.80;99.90;;;;;;5032444;28;20215;-57
2021/12/15 04:19:59;;;;;;;13.57;10.87;;;9.80;99.90;;;;;;5032741;28;20210;-57
2021/12/15 04:22:27;;;;;;;15.47;11.90;;;9.80;99.90;;;;;;5032772;28;20268;-58
2021/12/15 04:24:54;;;;;;;16.50;12.70;;;9.80;99.90;;;;;;5032097;28;20221;-59
2021/12/15 04:27:21;;;;;;;18.30;13.17;;;9.70;99.90;;;;;;5032236;28;20585;-57
2021/12/15 04:29:48;;;;;;;17.47;12.70;;;9.60;99.90;;;;;;5032012;28;20268;-57
2021/12/15 04:32:21;;;;;;;18.20;12.87;;;9.40;99.90;;;;;;5032447;28;20206;-57
2021/12/15 04:34:48;;;;;;;18.53;12.47;;;9.20;99.90;;;;;;5032019;28;20222;-57
2021/12/15 04:37:15;;;;;;;20.03;13.37;;;9.20;99.90;;;;;;5032323;28;20210;-58
2021/12/15 04:39:41;;;;;;;21.87;14.20;;;9.10;99.90;;;;;;5032366;28;20207;-59
2021/12/15 04:42:11;;;;;;;21.93;14.53;;;9.10;99.90;;;;;;5032042;28;20202;-58
2021/12/15 04:44:37;;;;;;;21.60;14.57;;;9.10;99.90;;;;;;5032007;28;20230;-57
2021/12/15 04:47:10;;;;;;;23.17;15.07;;;8.90;99.90;;;;;;5032236;28;20218;-58
2021/12/15 04:49:43;;;;;;;22.53;15.37;;;8.80;99.90;;;;;;5032121;28;20646;-59
2021/12/15 04:52:13;;;;;;;22.13;15.10;;;8.80;99.90;;;;;;5032076;28;20206;-57
2021/12/15 04:54:41;;;;;;;23.43;15.80;;;8.80;99.90;;;;;;5031709;28;20284;-57
2021/12/15 04:57:08;;;;;;;22.40;15.53;;;8.80;99.90;;;;;;5032159;28;20206;-57
2021/12/15 04:59:35;;;;;;;22.80;14.80;;;8.80;99.90;;;;;;5032308;28;20210;-56
2021/12/15 05:02:03;;;;;;;22.83;15.10;;;8.90;99.90;;;;;;5032119;28;20202;-56
2021/12/15 05:04:30;;;;;;;21.97;14.00;;;8.90;99.90;;;;;;5031685;28;20230;-57
2021/12/15 05:06:58;;;;;;;21.17;14.07;;;8.80;99.90;;;;;;5031887;28;20202;-56
2021/12/15 05:09:25;;;;;;;19.40;13.30;;;8.80;99.90;;;;;;5031526;28;20210;-57
2021/12/15 05:11:53;;;;;;;20.53;14.10;;;8.70;99.90;;;;;;5031972;28;20211;-56
2021/12/15 05:14:22;;;;;;;20.83;13.70;;;8.60;99.90;;;;;;5031672;28;20317;-56
2021/12/15 05:16:49;;;;;;;20.73;14.07;;;8.60;99.90;;;;;;5031899;28;20769;-56
2021/12/15 05:19:16;;;;;;;20.37;14.17;;;8.50;99.90;;;;;;5031836;28;20210;-56
2021/12/15 05:21:43;;;;;;;21.13;13.50;;;8.60;99.90;;;;;;5031823;28;20732;-58
2021/12/15 05:24:14;;;;;;;20.30;13.60;;;8.60;99.90;;;;;;5033247;28;20587;-57
2021/12/15 05:26:41;;;;;;;22.40;14.80;;;8.60;99.90;;;;;;5036012;28;20210;-57
2021/12/15 05:29:08;;;;;;;19.20;13.43;;;8.70;99.90;;;;;;5035802;28;20670;-57
2021/12/15 05:31:35;;;;;;;19.73;13.50;;;8.70;99.90;;;;;;5035722;28;20283;-58
2021/12/15 05:34:03;;;;;;;20.27;13.30;;;8.70;99.90;;;;;;5035419;28;20226;-58
2021/12/15 05:36:30;;;;;;;19.90;13.40;;;8.70;99.90;;;;;;5035365;28;20632;-58
2021/12/15 05:38:57;;;;;;;17.63;12.43;;;8.70;99.90;;;;;;5035474;28;20210;-57
2021/12/15 05:41:25;;;;;;;18.67;12.53;;;8.60;99.90;;;;;;5035380;28;20264;-57
2021/12/15 05:43:52;;;;;;;17.93;12.33;;;8.60;99.90;;;;;;5035675;28;20242;-59
2021/12/15 05:46:19;;;;;;;18.50;12.77;;;8.60;99.90;;;;;;5035213;28;20210;-60
2021/12/15 05:48:46;;;;;;;17.20;12.70;;;8.60;99.90;;;;;;5035260;28;20203;-58
2021/12/15 05:51:13;;;;;;;20.13;13.40;;;8.60;99.90;;;;;;5035427;28;20283;-60
2021/12/15 05:53:39;;;;;;;19.27;12.97;;;8.60;99.90;;;;;;5035232;28;20230;-59
2021/12/15 05:56:07;;;;;;;20.53;13.30;;;8.60;99.90;;;;;;5034829;28;20674;-59
2021/12/15 05:58:37;;;;;;;20.77;13.80;;;8.50;99.90;;;;;;5035041;28;20592;-60
2021/12/15 06:01:05;;;;;;;19.87;13.10;;;8.40;99.90;;;;;;5036253;28;20248;-59
2021/12/15 06:03:32;;;;;;;20.53;13.93;;;8.30;99.90;;;;;;5034858;28;20283;-60
2021/12/15 06:05:59;;;;;;;20.73;13.50;;;8.20;99.90;;;;;;5034846;28;20206;-59
2021/12/15 06:08:26;;;;;;;20.07;13.13;;;8.20;99.90;;;;;;5035057;28;20438;-60
2021/12/15 06:10:53;;;;;;;20.00;13.10;;;8.30;99.90;;;;;;5035164;28;20222;-60
2021/12/15 06:13:22;;;;;;;22.40;14.93;;;8.30;99.90;;;;;;5034735;28;20226;-59
2021/12/15 06:15:51;;;;;;;19.77;13.23;;;8.30;99.90;;;;;;5034349;28;20678;-59
2021/12/15 06:18:19;;;;;;;19.17;12.80;;;8.40;99.90;;;;;;5035300;28;20202;-60
2021/12/15 06:20:49;;;;;;;18.53;12.50;;;8.40;99.90;;;;;;5034602;28;20685;-60
2021/12/15 06:23:19;;;;;;;19.17;13.40;;;8.40;99.90;;;;;;5034503;28;20666;-60
2021/12/15 06:25:48;;;;;;;21.67;15.67;;;8.30;99.90;;;;;;5034376;28;20666;-60
2021/12/15 06:28:14;;;;;;;20.30;14.67;;;8.30;99.90;;;;;;5034304;28;20713;-60
2021/12/15 06:30:42;;;;;;;19.93;13.77;;;8.30;99.90;;;;;;5034370;28;20333;-60
2021/12/15 06:33:10;;;;;;;17.67;12.87;;;8.30;99.90;;;;;;5034269;28;20686;-61
2021/12/15 06:35:37;;;;;;;20.37;13.47;;;8.40;99.90;;;;;;5033173;28;20206;-60
2021/12/15 06:38:04;;;;;;;19.53;12.80;;;8.40;99.90;;;;;;5034132;28;20202;-60
2021/12/15 06:40:31;;;;;;;18.17;13.17;;;8.50;99.90;;;;;;5034153;28;20203;-60
2021/12/15 06:42:58;;;;;;;19.47;13.17;;;8.50;99.90;;;;;;5033902;28;20269;-60
2021/12/15 06:45:33;;;;;;;18.33;12.93;;;8.40;99.90;;;;;;5033704;28;20689;-60
2021/12/15 06:58:58;;;;;;;17.63;12.00;;;8.20;99.90;;;;;;5033744;28;20201;-60
2021/12/15 07:01:25;;;;;;;17.83;12.83;;;8.10;99.90;;;;;;5033896;28;20206;-61
2021/12/15 07:03:52;;;;;;;18.80;12.90;;;8.20;99.90;;;;;;5033632;28;20280;-60
2021/12/15 07:06:20;;;;;;;16.77;12.07;;;8.20;99.90;;;;;;5033676;28;20210;-60
2021/12/15 07:08:47;;;;;;;16.73;11.93;;;8.20;99.90;;;;;;5033574;28;20206;-60
2021/12/15 07:11:13;;;;;;;17.40;12.60;;;8.30;99.90;;;;;;5033557;28;20534;-60
2021/12/15 07:13:40;;;;;;;17.40;12.33;;;8.30;99.90;;;;;;5033592;28;20226;-60
2021/12/15 07:16:09;;;;;;;18.47;14.10;;;8.40;99.90;;;;;;5033436;28;20206;-60
2021/12/15 07:18:42;;;;;;;18.27;12.90;;;8.30;99.90;;;;;;5033464;28;20301;-60
2021/12/15 07:21:15;;;;;;;15.47;11.17;;;8.40;99.90;;;;;;5033642;28;20285;-60
2021/12/15 07:23:45;;;;;;;16.13;11.60;;;8.40;99.90;;;;;;5033525;28;20230;-59
2021/12/15 07:26:12;;;;;;;16.90;11.77;;;8.40;99.90;;;;;;5033180;28;20589;-60
2021/12/15 07:28:40;;;;;;;16.90;11.10;;;8.40;99.90;;;;;;5033381;28;20202;-60
2021/12/15 07:31:08;;;;;;;16.67;11.83;;;8.30;99.90;;;;;;5033205;28;20322;-60
2021/12/15 07:33:35;;;;;;;16.93;11.90;;;8.30;99.90;;;;;;5033185;28;20763;-60
2021/12/15 07:36:03;;;;;;;18.40;12.50;;;8.30;99.90;;;;;;5033035;28;20229;-60
2021/12/15 07:38:30;;;;;;;17.20;11.73;;;8.20;99.90;;;;;;5033157;28;20221;-60
2021/12/15 07:40:58;;;;;;;16.50;12.00;;;8.10;99.90;;;;;;5032793;28;20206;-59
2021/12/15 07:43:25;;;;;;;17.10;12.47;;;8.10;99.90;;;;;;5032725;28;20241;-60
2021/12/15 07:45:56;;;;;;;18.20;13.17;;;8.00;99.90;;;;;;5032871;28;20229;-60
2021/12/15 07:48:25;;;;;;;19.13;12.40;;;8.00;99.90;;;;;;5032904;28;20206;-60
2021/12/15 07:50:56;;;;;;;19.43;13.27;;;8.00;99.90;;;;;;5032789;28;20222;-60
2021/12/15 07:53:23;;;;;;;18.97;13.27;;;8.10;99.90;;;;;;5032836;28;20226;-61
2021/12/15 07:55:50;;;;;;;19.00;13.37;;;8.20;99.90;;;;;;5032337;28;20210;-60
2021/12/15 07:58:20;;;;;;;17.70;11.50;;;8.20;99.90;;;;;;5032754;28;20633;-60
2021/12/15 08:00:48;;;;;;;16.97;11.87;;;8.20;99.90;;;;;;5033021;28;20202;-60
2021/12/15 08:03:16;;;;;;;15.30;11.60;;;8.20;99.90;;;;;;5032902;28;20222;-61
2021/12/15 08:05:44;;;;;;;15.47;11.13;;;8.10;99.90;;;;;;5032635;28;20216;-61
2021/12/15 08:08:11;;;;;;;18.70;12.17;;;8.10;99.90;;;;;;5032765;28;20368;-61
2021/12/15 08:10:38;;;;;;;16.57;11.43;;;8.10;99.90;;;;;;5032507;28;20226;-62
2021/12/15 08:13:05;;;;;;;15.87;11.10;;;8.10;99.90;;;;;;5032388;28;20662;-61
2021/12/15 08:15:33;;;;;;;17.53;12.47;;;8.20;99.90;;;;;;5032564;28;20271;-61
2021/12/15 08:18:00;;;;;;;15.87;11.47;;;8.20;99.90;;;;;;5032720;28;20279;-60
2021/12/15 08:20:29;;;;;;;15.67;11.30;;;8.40;99.90;;;;;;5032674;28;20256;-61
2021/12/15 08:22:56;;;;;;;16.50;11.60;;;8.40;99.90;;;;;;5032436;28;20214;-60
2021/12/15 08:25:23;;;;;;;16.00;11.93;;;8.50;99.90;;;;;;5032180;28;20209;-62
2021/12/15 08:27:52;;;;;;;16.17;12.03;;;8.50;99.90;;;;;;5032513;28;20213;-60
2021/12/15 08:30:22;;;;;;;23.70;16.80;;;8.60;99.90;;;;;;5032339;28;20209;-60
2021/12/15 08:32:53;;;;;;;16.40;12.07;;;8.70;99.90;;;;;;5032363;28;20202;-59
2021/12/15 08:35:25;;;;;;;18.20;13.37;;;8.70;99.90;;;;;;5032061;28;20213;-60
2021/12/15 08:37:52;;;;;;;14.77;11.27;;;8.60;99.90;;;;;;5032527;28;20211;-60
2021/12/15 08:40:21;;;;;;;14.73;11.07;;;8.70;99.90;;;;;;5032060;28;20211;-61
2021/12/15 08:42:47;;;;;;;20.60;14.33;;;8.80;99.90;;;;;;5032163;28;20225;-61
2021/12/15 08:45:15;;;;;;;16.17;10.77;;;8.80;99.90;;;;;;5031711;28;20235;-60
2021/12/15 08:47:42;;;;;;;17.03;11.20;;;8.80;99.90;;;;;;5031975;28;20206;-61
2021/12/15 08:50:15;;;;;;;16.13;11.20;;;8.90;99.90;;;;;;5031983;28;20210;-60
2021/12/15 08:52:41;;;;;;;15.00;10.43;;;9.00;99.90;;;;;;5032008;28;20234;-61
2021/12/15 08:55:10;;;;;;;14.37;10.60;;;9.10;99.90;;;;;;5031675;28;20222;-60
2021/12/15 08:57:37;;;;;;;14.07;10.30;;;9.20;99.90;;;;;;5031761;28;20289;-61
2021/12/15 09:00:06;;;;;;;13.67;10.80;;;9.10;99.90;;;;;;5031366;28;20206;-59
2021/12/15 09:02:34;;;;;;;14.87;11.03;;;9.20;99.90;;;;;;5031730;28;20252;-59
2021/12/15 09:05:01;;;;;;;14.37;10.60;;;9.10;99.90;;;;;;5031725;28;20225;-59
2021/12/15 09:07:29;;;;;;;13.87;10.20;;;9.10;99.90;;;;;;5031895;28;20260;-59
2021/12/15 09:09:56;;;;;;;14.93;10.60;;;9.10;99.90;;;;;;5031884;28;20206;-61
2021/12/15 09:12:23;;;;;;;14.50;10.77;;;9.20;99.90;;;;;;5031713;28;20605;-60
2021/12/15 09:14:50;;;;;;;17.47;9.93;;;9.20;99.90;;;;;;5031789;28;20226;-59
2021/12/15 09:17:17;;;;;;;11.20;8.80;;;9.20;99.90;;;;;;5032387;28;20690;-61
2021/12/15 09:19:44;;;;;;;11.83;9.07;;;9.30;99.90;;;;;;5031646;28;20297;-60
2021/12/15 09:22:10;;;;;;;12.53;9.60;;;9.20;99.90;;;;;;5031802;28;20213;-61
2021/12/15 09:24:39;;;;;;;10.50;8.43;;;9.20;99.90;;;;;;5031518;28;20230;-61
2021/12/15 09:27:06;;;;;;;12.23;9.80;;;9.20;99.90;;;;;;5031792;28;20206;-60
2021/12/15 09:29:32;;;;;;;12.57;9.43;;;9.30;99.90;;;;;;5031730;28;20203;-59
2021/12/15 09:32:00;;;;;;;14.90;9.07;;;9.30;99.90;;;;;;5031526;28;20226;-60
2021/12/15 09:34:26;;;;;;;12.67;9.43;;;9.40;99.90;;;;;;5031537;28;20233;-60
2021/12/15 09:36:55;;;;;;;11.85;10.43;;;9.40;99.90;;;;;;5028070;28;20437;-63
2021/12/15 09:39:23;;;;;;;11.00;9.07;;;9.50;99.90;;;;;;5031510;28;20209;-57
2021/12/15 09:41:53;;;;;;;10.00;8.53;;;9.60;99.90;;;;;;5031683;28;20203;-63
2021/12/15 09:44:23;;;;;;;10.00;8.40;;;9.70;99.90;;;;;;5031320;28;20233;-60
2021/12/15 10:02:00;;;;;;;10.30;7.97;;;10.00;99.90;;;;;;5031243;28;20201;-58
2021/12/15 10:03:34;;;;;;;11.60;8.17;;;10.10;99.90;;;;;;5031265;28;20225;-59
2021/12/15 10:06:18;;;;;;;11.20;8.90;;;10.10;99.90;;;;;;5031390;28;20635;-60
2021/12/15 10:11:46;;;;;;;9.23;7.37;;;10.20;99.90;;;;;;5023403;28;20317;-60
2021/12/15 10:19:51;;;;;;;9.57;8.17;;;10.40;99.90;;;;;;5034845;28;20305;-60
2021/12/15 10:22:30;;;;;;;9.53;8.00;;;10.50;99.90;;;;;;5034946;28;20225;-58
2021/12/15 10:24:59;;;;;;;11.53;8.20;;;10.60;99.90;;;;;;5034165;28;20662;-59
2021/12/15 10:27:37;;;;;;;10.33;7.80;;;10.70;99.90;;;;;;5034624;28;20214;-59
2021/12/15 10:30:12;;;;;;;10.73;8.43;;;10.80;99.90;;;;;;5034271;28;20580;-59
2021/12/15 10:32:41;;;;;;;10.50;8.50;;;10.60;99.90;;;;;;5034278;28;20731;-60
2021/12/15 10:35:11;;;;;;;11.73;9.37;;;10.60;99.90;;;;;;5034173;28;20226;-60
2021/12/15 10:37:40;;;;;;;9.47;7.80;;;10.70;99.90;;;;;;5034482;28;20264;-56
2021/12/15 10:40:18;;;;;;;9.47;7.50;;;10.60;99.90;;;;;;5034676;28;20214;-56
2021/12/15 10:42:45;;;;;;;13.30;8.57;;;10.20;99.90;;;;;;5034635;28;20235;-56
2021/12/15 10:45:16;;;;;;;8.67;7.20;;;9.90;99.90;;;;;;5033995;28;20587;-55
2021/12/15 10:47:46;;;;;;;9.57;7.90;;;9.90;99.90;;;;;;5033890;28;20221;-61
2021/12/15 10:50:19;;;;;;;13.80;9.47;;;10.10;99.90;;;;;;5034374;28;20218;-62
2021/12/15 10:52:54;;;;;;;9.23;7.33;;;10.30;99.90;;;;;;5033841;28;20728;-60
2021/12/15 10:55:28;;;;;;;10.37;7.60;;;10.40;99.90;;;;;;5033412;28;20201;-61
2021/12/15 10:57:54;;;;;;;9.57;7.83;;;10.50;99.90;;;;;;5033804;28;20209;-61
2021/12/15 11:00:25;;;;;;;8.80;7.00;;;10.60;99.90;;;;;;5033742;28;20213;-61
2021/12/15 11:03:01;;;;;;;7.60;6.80;;;10.70;99.90;;;;;;5033670;28;20213;-61
2021/12/15 11:05:28;;;;;;;7.97;6.90;;;10.70;99.90;;;;;;5033277;28;20216;-60
2021/12/15 11:07:56;;;;;;;6.73;6.03;;;10.60;99.90;;;;;;5033598;28;20210;-61
2021/12/15 11:10:27;;;;;;;6.70;5.57;;;10.60;99.90;;;;;;5033561;28;20210;-61
2021/12/15 11:12:57;;;;;;;8.43;5.50;;;10.50;99.90;;;;;;5033304;28;20764;-60
2021/12/15 11:15:27;;;;;;;6.57;5.43;;;10.50;99.90;;;;;;5033378;28;20301;-61
2021/12/15 11:17:57;;;;;;;5.50;4.83;;;10.60;99.90;;;;;;5033100;28;20210;-61
2021/12/15 11:20:26;;;;;;;5.90;4.87;;;10.60;99.90;;;;;;5033263;28;20237;-61
2021/12/15 11:23:03;;;;;;;6.03;5.07;;;10.60;99.90;;;;;;5032650;28;20212;-61
2021/12/15 11:25:38;;;;;;;10.80;7.63;;;10.40;99.90;;;;;;5033181;28;20209;-61
2021/12/15 11:28:15;;;;;;;5.47;4.70;;;10.40;99.90;;;;;;5033080;28;20747;-61
2021/12/15 11:30:48;;;;;;;5.00;4.50;;;10.40;99.90;;;;;;5033193;28;20210;-59
2021/12/15 11:33:18;;;;;;;4.20;3.80;;;10.30;99.90;;;;;;5032928;28;20702;-60
2021/12/15 11:35:47;;;;;;;6.27;3.77;;;10.30;99.90;;;;;;5033059;28;20210;-60
2021/12/15 11:38:19;;;;;;;4.70;4.10;;;10.30;99.90;;;;;;5033090;28;20202;-59
2021/12/15 11:40:49;;;;;;;4.63;3.83;;;10.30;99.90;;;;;;5032960;28;20682;-59
2021/12/15 11:45:45;;;;;;;4.10;3.70;;;10.40;99.90;;;;;;4991925;28;20224;-61
2021/12/15 11:48:16;;;;;;;4.57;4.13;;;10.40;99.90;;;;;;4993738;28;20207;-63
2021/12/15 11:50:44;;;;;;;4.20;3.80;;;10.50;99.90;;;;;;4993569;28;20207;-62
2021/12/15 11:53:31;;;;;;;3.77;3.47;;;10.50;99.90;;;;;;4993623;28;20248;-63
2021/12/15 11:56:13;;;;;;;6.37;3.20;;;10.50;99.90;;;;;;4973479;28;20685;-62
2021/12/15 11:58:40;;;;;;;3.53;3.10;;;10.40;99.90;;;;;;4973807;28;20212;-62
2021/12/15 12:01:09;;;;;;;4.73;3.43;;;10.40;99.90;;;;;;4973617;28;20212;-63
2021/12/15 12:03:36;;;;;;;3.67;3.37;;;10.40;99.90;;;;;;4973352;28;20310;-63
2021/12/15 12:06:03;;;;;;;4.30;3.87;;;10.50;99.90;;;;;;4973063;28;20210;-62
2021/12/15 12:08:30;;;;;;;3.10;2.77;;;10.50;99.90;;;;;;4973898;28;20214;-63
2021/12/15 12:11:04;;;;;;;3.77;2.93;;;10.50;99.90;;;;;;4973800;28;20211;-62
2021/12/15 12:13:38;;;;;;;3.70;3.07;;;10.50;99.90;;;;;;4973609;28;20228;-64
2021/12/15 12:16:07;;;;;;;3.27;2.97;;;10.40;99.90;;;;;;4973520;28;20208;-63
2021/12/15 12:18:35;;;;;;;3.30;3.00;;;10.50;99.90;;;;;;4973380;28;20208;-62
2021/12/15 12:21:06;;;;;;;3.23;2.60;;;10.40;99.90;;;;;;4973882;28;20620;-63
2021/12/15 12:23:34;;;;;;;3.80;2.40;;;10.30;99.90;;;;;;4973582;28;20204;-63
2021/12/15 12:26:04;;;;;;;3.33;3.03;;;10.10;99.90;;;;;;4973192;28;20219;-60
2021/12/15 12:28:33;;;;;;;2.83;2.60;;;9.90;99.90;;;;;;4973446;28;20204;-60
2021/12/15 12:31:03;;;;;;;5.27;2.73;;;10.00;99.90;;;;;;4973225;28;20216;-60
2021/12/15 12:33:31;;;;;;;4.13;2.90;;;10.10;99.90;;;;;;4972726;28;20255;-60
2021/12/15 12:36:04;;;;;;;4.43;4.03;;;10.20;99.90;;;;;;4973963;28;20216;-60
2021/12/15 12:38:33;;;;;;;3.40;3.10;;;10.30;99.90;;;;;;4973682;28;20212;-60
2021/12/15 12:41:03;;;;;;;4.07;3.67;;;10.30;99.90;;;;;;4973293;28;20289;-60
2021/12/15 12:43:34;;;;;;;3.43;3.00;;;10.30;99.90;;;;;;4972992;28;20208;-60
2021/12/15 12:46:08;;;;;;;3.53;2.90;;;10.30;99.90;;;;;;4973204;28;20711;-60
2021/12/15 12:48:47;;;;;;;3.53;3.23;;;10.10;99.90;;;;;;4973477;28;20223;-59
2021/12/15 12:59:42;;;;;;;5.50;3.40;;;9.70;99.90;;;;;;4973357;28;20227;-62
2021/12/15 13:02:39;;;;;;;5.73;3.40;;;9.70;99.90;;;;;;4974037;28;20244;-62
2021/12/15 13:05:26;;;;;;;3.20;2.90;;;9.70;99.90;;;;;;4973643;28;20282;-61
2021/12/15 13:07:56;;;;;;;3.60;3.30;;;9.80;99.90;;;;;;4974857;28;20215;-61
2021/12/15 13:11:06;;;;;;;4.23;3.40;;;9.90;99.90;;;;;;4973968;28;20212;-59
2021/12/15 13:13:35;;;;;;;3.10;2.80;;;9.80;99.90;;;;;;4973543;28;20718;-61
2021/12/15 13:16:06;;;;;;;3.50;3.20;;;9.70;99.90;;;;;;4973803;28;20218;-61
2021/12/15 13:18:47;;;;;;;4.10;3.27;;;9.60;99.90;;;;;;4972992;28;20212;-61
2021/12/15 13:21:16;;;;;;;4.07;3.37;;;9.70;99.90;;;;;;4973228;28;20212;-60
2021/12/15 13:23:49;;;;;;;3.77;3.20;;;9.80;99.90;;;;;;4972939;28;20731;-60
2021/12/15 13:29:36;;;;;;;4.80;3.37;;;9.70;99.90;;;;;;4972929;28;20347;-60
2021/12/15 13:32:05;;;;;;;3.57;2.80;;;9.70;99.90;;;;;;4973072;28;20267;-61
2021/12/15 13:34:43;;;;;;;3.83;2.67;;;9.60;99.90;;;;;;4973085;28;20254;-61
2021/12/15 13:37:10;;;;;;;3.80;3.20;;;9.50;99.90;;;;;;4972754;28;20211;-60
2021/12/15 13:39:49;;;;;;;5.57;3.37;;;9.30;99.90;;;;;;4973165;28;20266;-60
2021/12/15 13:42:39;;;;;;;3.40;2.67;;;9.20;99.90;;;;;;4973267;28;20292;-60
2021/12/15 13:45:25;;;;;;;3.17;2.80;;;9.30;99.90;;;;;;4973862;28;20750;-59
2021/12/15 13:47:52;;;;;;;5.57;3.73;;;9.30;99.90;;;;;;4976417;28;20216;-61
2021/12/15 13:50:22;;;;;;;3.03;2.80;;;9.30;99.90;;;;;;4976720;28;20216;-60
2021/12/15 13:52:56;;;;;;;3.03;2.83;;;9.40;99.90;;;;;;4976466;28;20707;-60
2021/12/15 13:55:28;;;;;;;3.43;3.13;;;9.40;99.90;;;;;;4976219;28;20283;-60
2021/12/15 13:58:15;;;;;;;3.17;2.87;;;9.40;99.90;;;;;;4976372;28;20700;-60
2021/12/15 14:00:49;;;;;;;4.27;3.73;;;9.30;99.90;;;;;;4976149;28;20219;-61
2021/12/15 14:03:20;;;;;;;3.20;2.90;;;9.30;99.90;;;;;;4976362;28;20204;-62